sensor_id;sensor_type;location;lat;lon;timestamp;P1;durP1;ratioP1;P2;durP2;ratioP2
12110;SDS011;6119;52.372;8.990;2024-02-15T00:00:43;26.20;;;17.50;;
12110;SDS011;6119;52.372;8.990;2024-02-15T00:03:30;25.83;;;17.13;;
12110;SDS011;6119;52.372;8.990;2024-02-15T00:06:17;21.20;;;17.20;;
12110;SDS011;6119;52.372;8.990;2024-02-15T00:09:03;20.80;;;17.03;;
12110;SDS011;6119;52.372;8.990;2024-02-15T00:11:50;21.80;;;16.87;;
12110;SDS011;6119;52.372;8.990;2024-02-15T00:14:40;23.63;;;17.47;;
12110;SDS011;6119;52.372;8.990;2024-02-15T00:17:27;23.63;;;17.33;;
12110;SDS011;6119;52.372;8.990;2024-02-15T00:20:15;21.23;;;18.10;;
12110;SDS011;6119;52.372;8.990;2024-02-15T00:23:03;21.90;;;17.43;;
12110;SDS011;6119;52.372;8.990;2024-02-15T00:25:51;22.30;;;18.10;;
12110;SDS011;6119;52.372;8.990;2024-02-15T00:28:38;22.03;;;17.57;;
12110;SDS011;6119;52.372;8.990;2024-02-15T00:31:28;25.13;;;17.33;;
12110;SDS011;6119;52.372;8.990;2024-02-15T00:34:15;19.97;;;16.67;;
12110;SDS011;6119;52.372;8.990;2024-02-15T00:37:03;21.87;;;17.63;;
12110;SDS011;6119;52.372;8.990;2024-02-15T00:39:49;20.80;;;17.50;;
12110;SDS011;6119;52.372;8.990;2024-02-15T00:42:36;23.60;;;17.40;;
12110;SDS011;6119;52.372;8.990;2024-02-15T00:45:24;22.83;;;16.27;;
12110;SDS011;6119;52.372;8.990;2024-02-15T00:48:12;21.10;;;16.43;;
12110;SDS011;6119;52.372;8.990;2024-02-15T00:51:00;20.30;;;15.97;;
12110;SDS011;6119;52.372;8.990;2024-02-15T00:53:47;19.97;;;16.20;;
12110;SDS011;6119;52.372;8.990;2024-02-15T00:56:33;23.77;;;16.70;;
12110;SDS011;6119;52.372;8.990;2024-02-15T00:59:20;20.23;;;15.87;;
12110;SDS011;6119;52.372;8.990;2024-02-15T01:02:06;18.97;;;15.73;;
12110;SDS011;6119;52.372;8.990;2024-02-15T01:04:54;18.97;;;14.80;;
12110;SDS011;6119;52.372;8.990;2024-02-15T01:07:43;20.93;;;16.27;;
12110;SDS011;6119;52.372;8.990;2024-02-15T01:10:29;21.03;;;15.20;;
12110;SDS011;6119;52.372;8.990;2024-02-15T01:13:16;18.63;;;14.43;;
12110;SDS011;6119;52.372;8.990;2024-02-15T01:16:03;18.73;;;15.50;;
12110;SDS011;6119;52.372;8.990;2024-02-15T01:18:50;19.73;;;14.43;;
12110;SDS011;6119;52.372;8.990;2024-02-15T01:21:38;19.10;;;13.90;;
12110;SDS011;6119;52.372;8.990;2024-02-15T01:24:25;17.13;;;13.37;;
12110;SDS011;6119;52.372;8.990;2024-02-15T01:27:11;18.43;;;13.60;;
12110;SDS011;6119;52.372;8.990;2024-02-15T01:29:58;16.57;;;12.93;;
12110;SDS011;6119;52.372;8.990;2024-02-15T01:32:45;16.93;;;13.30;;
12110;SDS011;6119;52.372;8.990;2024-02-15T01:35:32;15.63;;;12.97;;
12110;SDS011;6119;52.372;8.990;2024-02-15T01:38:20;14.93;;;12.77;;
12110;SDS011;6119;52.372;8.990;2024-02-15T01:41:07;15.00;;;12.37;;
12110;SDS011;6119;52.372;8.990;2024-02-15T01:43:54;16.37;;;13.33;;
12110;SDS011;6119;52.372;8.990;2024-02-15T01:46:40;15.27;;;12.40;;
12110;SDS011;6119;52.372;8.990;2024-02-15T01:49:28;15.80;;;12.27;;
12110;SDS011;6119;52.372;8.990;2024-02-15T01:52:15;20.10;;;13.60;;
12110;SDS011;6119;52.372;8.990;2024-02-15T01:55:05;18.93;;;13.30;;
12110;SDS011;6119;52.372;8.990;2024-02-15T01:57:53;16.33;;;12.73;;
12110;SDS011;6119;52.372;8.990;2024-02-15T02:00:40;17.07;;;13.03;;
12110;SDS011;6119;52.372;8.990;2024-02-15T02:03:28;17.33;;;13.87;;
12110;SDS011;6119;52.372;8.990;2024-02-15T02:06:15;21.40;;;14.37;;
12110;SDS011;6119;52.372;8.990;2024-02-15T02:09:02;17.33;;;13.43;;
12110;SDS011;6119;52.372;8.990;2024-02-15T02:11:51;15.30;;;12.83;;
12110;SDS011;6119;52.372;8.990;2024-02-15T02:14:37;15.90;;;13.40;;
12110;SDS011;6119;52.372;8.990;2024-02-15T02:17:24;15.33;;;13.07;;
12110;SDS011;6119;52.372;8.990;2024-02-15T02:20:11;15.70;;;13.17;;
12110;SDS011;6119;52.372;8.990;2024-02-15T02:23:01;16.97;;;13.40;;
12110;SDS011;6119;52.372;8.990;2024-02-15T02:25:54;16.60;;;14.13;;
12110;SDS011;6119;52.372;8.990;2024-02-15T02:28:41;18.27;;;14.73;;
12110;SDS011;6119;52.372;8.990;2024-02-15T02:31:27;18.27;;;14.30;;
12110;SDS011;6119;52.372;8.990;2024-02-15T02:34:14;18.33;;;14.50;;
12110;SDS011;6119;52.372;8.990;2024-02-15T02:37:01;18.57;;;14.17;;
12110;SDS011;6119;52.372;8.990;2024-02-15T02:39:50;20.13;;;14.60;;
12110;SDS011;6119;52.372;8.990;2024-02-15T02:42:47;16.87;;;14.57;;
12110;SDS011;6119;52.372;8.990;2024-02-15T02:45:35;21.07;;;15.17;;
12110;SDS011;6119;52.372;8.990;2024-02-15T02:48:21;15.93;;;13.53;;
12110;SDS011;6119;52.372;8.990;2024-02-15T02:51:08;20.07;;;14.63;;
12110;SDS011;6119;52.372;8.990;2024-02-15T02:53:55;18.43;;;15.60;;
12110;SDS011;6119;52.372;8.990;2024-02-15T02:56:42;16.83;;;13.57;;
12110;SDS011;6119;52.372;8.990;2024-02-15T02:59:31;20.67;;;15.27;;
12110;SDS011;6119;52.372;8.990;2024-02-15T03:02:19;23.77;;;15.20;;
12110;SDS011;6119;52.372;8.990;2024-02-15T03:05:08;23.80;;;15.70;;
12110;SDS011;6119;52.372;8.990;2024-02-15T03:07:56;21.33;;;14.87;;
12110;SDS011;6119;52.372;8.990;2024-02-15T03:10:43;20.03;;;15.07;;
12110;SDS011;6119;52.372;8.990;2024-02-15T03:13:30;19.53;;;15.50;;
12110;SDS011;6119;52.372;8.990;2024-02-15T03:16:17;21.33;;;15.77;;
12110;SDS011;6119;52.372;8.990;2024-02-15T03:19:10;22.23;;;15.50;;
12110;SDS011;6119;52.372;8.990;2024-02-15T03:21:57;18.33;;;14.77;;
12110;SDS011;6119;52.372;8.990;2024-02-15T03:24:45;21.63;;;15.63;;
12110;SDS011;6119;52.372;8.990;2024-02-15T03:27:32;18.13;;;14.97;;
12110;SDS011;6119;52.372;8.990;2024-02-15T03:30:18;18.83;;;15.20;;
12110;SDS011;6119;52.372;8.990;2024-02-15T03:33:06;19.60;;;14.23;;
12110;SDS011;6119;52.372;8.990;2024-02-15T03:35:53;19.17;;;14.60;;
12110;SDS011;6119;52.372;8.990;2024-02-15T03:38:45;20.27;;;14.23;;
12110;SDS011;6119;52.372;8.990;2024-02-15T03:41:32;17.67;;;14.37;;
12110;SDS011;6119;52.372;8.990;2024-02-15T03:44:19;17.20;;;13.97;;
12110;SDS011;6119;52.372;8.990;2024-02-15T03:47:06;17.73;;;13.10;;
12110;SDS011;6119;52.372;8.990;2024-02-15T03:49:54;16.57;;;13.03;;
12110;SDS011;6119;52.372;8.990;2024-02-15T03:52:40;14.70;;;12.57;;
12110;SDS011;6119;52.372;8.990;2024-02-15T03:55:27;17.20;;;13.50;;
12110;SDS011;6119;52.372;8.990;2024-02-15T03:58:13;18.03;;;13.73;;
12110;SDS011;6119;52.372;8.990;2024-02-15T04:01:00;16.47;;;11.50;;
12110;SDS011;6119;52.372;8.990;2024-02-15T04:03:50;15.50;;;11.83;;
12110;SDS011;6119;52.372;8.990;2024-02-15T04:06:38;20.90;;;13.93;;
12110;SDS011;6119;52.372;8.990;2024-02-15T04:09:26;16.87;;;13.10;;
12110;SDS011;6119;52.372;8.990;2024-02-15T04:12:13;18.33;;;14.33;;
12110;SDS011;6119;52.372;8.990;2024-02-15T04:15:00;14.83;;;11.67;;
12110;SDS011;6119;52.372;8.990;2024-02-15T04:17:50;14.33;;;11.83;;
12110;SDS011;6119;52.372;8.990;2024-02-15T04:20:41;15.33;;;12.17;;
12110;SDS011;6119;52.372;8.990;2024-02-15T04:23:32;14.20;;;11.60;;
12110;SDS011;6119;52.372;8.990;2024-02-15T04:26:19;14.73;;;11.23;;
12110;SDS011;6119;52.372;8.990;2024-02-15T04:29:06;15.80;;;11.20;;
12110;SDS011;6119;52.372;8.990;2024-02-15T04:31:53;12.97;;;10.80;;
12110;SDS011;6119;52.372;8.990;2024-02-15T04:34:41;16.70;;;10.97;;
12110;SDS011;6119;52.372;8.990;2024-02-15T04:37:28;13.77;;;11.43;;
12110;SDS011;6119;52.372;8.990;2024-02-15T04:40:19;14.03;;;10.83;;
12110;SDS011;6119;52.372;8.990;2024-02-15T04:43:05;12.93;;;10.80;;
12110;SDS011;6119;52.372;8.990;2024-02-15T04:45:53;15.47;;;11.90;;
12110;SDS011;6119;52.372;8.990;2024-02-15T04:48:40;16.37;;;11.80;;
12110;SDS011;6119;52.372;8.990;2024-02-15T04:51:28;15.47;;;12.10;;
12110;SDS011;6119;52.372;8.990;2024-02-15T04:54:14;15.27;;;12.70;;
12110;SDS011;6119;52.372;8.990;2024-02-15T04:57:04;18.57;;;13.90;;
12110;SDS011;6119;52.372;8.990;2024-02-15T04:59:56;16.90;;;12.70;;
12110;SDS011;6119;52.372;8.990;2024-02-15T05:02:45;19.37;;;13.50;;
12110;SDS011;6119;52.372;8.990;2024-02-15T05:05:32;20.57;;;15.10;;
12110;SDS011;6119;52.372;8.990;2024-02-15T05:08:19;21.93;;;15.60;;
12110;SDS011;6119;52.372;8.990;2024-02-15T05:11:06;21.43;;;14.80;;
12110;SDS011;6119;52.372;8.990;2024-02-15T05:13:59;24.37;;;16.40;;
12110;SDS011;6119;52.372;8.990;2024-02-15T05:16:46;26.80;;;16.60;;
12110;SDS011;6119;52.372;8.990;2024-02-15T05:19:33;26.43;;;16.50;;
12110;SDS011;6119;52.372;8.990;2024-02-15T05:22:21;26.20;;;17.10;;
12110;SDS011;6119;52.372;8.990;2024-02-15T05:25:08;25.47;;;16.83;;
12110;SDS011;6119;52.372;8.990;2024-02-15T05:27:54;26.17;;;18.17;;
12110;SDS011;6119;52.372;8.990;2024-02-15T05:30:43;25.17;;;17.03;;
12110;SDS011;6119;52.372;8.990;2024-02-15T05:33:30;26.13;;;18.20;;
12110;SDS011;6119;52.372;8.990;2024-02-15T05:36:18;25.90;;;18.10;;
12110;SDS011;6119;52.372;8.990;2024-02-15T05:39:06;31.57;;;18.57;;
12110;SDS011;6119;52.372;8.990;2024-02-15T05:41:53;28.00;;;18.87;;
12110;SDS011;6119;52.372;8.990;2024-02-15T05:44:46;33.30;;;21.03;;
12110;SDS011;6119;52.372;8.990;2024-02-15T05:47:34;30.30;;;19.47;;
12110;SDS011;6119;52.372;8.990;2024-02-15T05:50:21;34.37;;;20.13;;
12110;SDS011;6119;52.372;8.990;2024-02-15T05:53:09;32.10;;;21.10;;
12110;SDS011;6119;52.372;8.990;2024-02-15T05:55:55;28.03;;;19.40;;
12110;SDS011;6119;52.372;8.990;2024-02-15T05:58:42;32.40;;;20.73;;
12110;SDS011;6119;52.372;8.990;2024-02-15T06:01:29;31.63;;;21.10;;
12110;SDS011;6119;52.372;8.990;2024-02-15T06:04:17;34.53;;;21.50;;
12110;SDS011;6119;52.372;8.990;2024-02-15T06:07:04;35.53;;;22.00;;
12110;SDS011;6119;52.372;8.990;2024-02-15T06:09:51;35.60;;;21.40;;
12110;SDS011;6119;52.372;8.990;2024-02-15T06:12:38;36.03;;;22.90;;
12110;SDS011;6119;52.372;8.990;2024-02-15T06:15:24;38.13;;;22.93;;
12110;SDS011;6119;52.372;8.990;2024-02-15T06:18:12;39.63;;;22.90;;
12110;SDS011;6119;52.372;8.990;2024-02-15T06:21:01;40.00;;;23.33;;
12110;SDS011;6119;52.372;8.990;2024-02-15T06:23:48;41.70;;;24.43;;
12110;SDS011;6119;52.372;8.990;2024-02-15T06:26:35;37.97;;;22.43;;
12110;SDS011;6119;52.372;8.990;2024-02-15T06:29:22;35.83;;;23.00;;
12110;SDS011;6119;52.372;8.990;2024-02-15T06:32:26;38.90;;;23.27;;
12110;SDS011;6119;52.372;8.990;2024-02-15T06:35:30;38.47;;;22.60;;
12110;SDS011;6119;52.372;8.990;2024-02-15T06:38:36;42.43;;;22.87;;
12110;SDS011;6119;52.372;8.990;2024-02-15T06:41:40;40.77;;;22.07;;
12110;SDS011;6119;52.372;8.990;2024-02-15T06:44:26;36.30;;;21.20;;
12110;SDS011;6119;52.372;8.990;2024-02-15T06:47:14;35.43;;;21.67;;
12110;SDS011;6119;52.372;8.990;2024-02-15T06:50:03;33.70;;;20.47;;
12110;SDS011;6119;52.372;8.990;2024-02-15T06:52:53;32.20;;;19.87;;
12110;SDS011;6119;52.372;8.990;2024-02-15T06:55:41;34.80;;;21.07;;
12110;SDS011;6119;52.372;8.990;2024-02-15T06:58:28;35.03;;;22.00;;
12110;SDS011;6119;52.372;8.990;2024-02-15T07:01:14;35.73;;;20.03;;
12110;SDS011;6119;52.372;8.990;2024-02-15T07:04:02;30.33;;;20.03;;
12110;SDS011;6119;52.372;8.990;2024-02-15T07:06:49;31.93;;;19.67;;
12110;SDS011;6119;52.372;8.990;2024-02-15T07:09:37;29.73;;;18.93;;
12110;SDS011;6119;52.372;8.990;2024-02-15T07:12:25;35.67;;;19.07;;
12110;SDS011;6119;52.372;8.990;2024-02-15T07:15:11;28.40;;;18.60;;
12110;SDS011;6119;52.372;8.990;2024-02-15T07:17:59;28.00;;;18.37;;
12110;SDS011;6119;52.372;8.990;2024-02-15T07:20:46;30.63;;;17.53;;
12110;SDS011;6119;52.372;8.990;2024-02-15T07:23:33;25.87;;;17.60;;
12110;SDS011;6119;52.372;8.990;2024-02-15T07:26:23;30.80;;;18.40;;
12110;SDS011;6119;52.372;8.990;2024-02-15T07:29:12;23.27;;;16.50;;
12110;SDS011;6119;52.372;8.990;2024-02-15T07:32:00;28.60;;;17.57;;
12110;SDS011;6119;52.372;8.990;2024-02-15T07:34:48;23.50;;;16.87;;
12110;SDS011;6119;52.372;8.990;2024-02-15T07:37:35;25.50;;;17.10;;
12110;SDS011;6119;52.372;8.990;2024-02-15T07:40:22;24.63;;;14.27;;
12110;SDS011;6119;52.372;8.990;2024-02-15T07:43:12;25.10;;;13.60;;
12110;SDS011;6119;52.372;8.990;2024-02-15T07:46:00;17.37;;;12.70;;
12110;SDS011;6119;52.372;8.990;2024-02-15T07:48:47;21.33;;;12.60;;
12110;SDS011;6119;52.372;8.990;2024-02-15T07:51:35;14.83;;;9.87;;
12110;SDS011;6119;52.372;8.990;2024-02-15T07:54:22;20.53;;;11.03;;
12110;SDS011;6119;52.372;8.990;2024-02-15T07:57:10;20.17;;;10.57;;
12110;SDS011;6119;52.372;8.990;2024-02-15T07:59:57;11.40;;;8.63;;
12110;SDS011;6119;52.372;8.990;2024-02-15T08:02:45;14.33;;;8.80;;
12110;SDS011;6119;52.372;8.990;2024-02-15T08:05:32;12.27;;;7.53;;
12110;SDS011;6119;52.372;8.990;2024-02-15T08:08:21;13.33;;;7.10;;
12110;SDS011;6119;52.372;8.990;2024-02-15T08:11:08;12.57;;;8.37;;
12110;SDS011;6119;52.372;8.990;2024-02-15T08:14:00;12.13;;;6.97;;
12110;SDS011;6119;52.372;8.990;2024-02-15T08:16:46;9.27;;;6.67;;
12110;SDS011;6119;52.372;8.990;2024-02-15T08:19:34;12.77;;;7.43;;
12110;SDS011;6119;52.372;8.990;2024-02-15T08:22:22;9.03;;;6.23;;
12110;SDS011;6119;52.372;8.990;2024-02-15T08:25:09;13.40;;;6.63;;
12110;SDS011;6119;52.372;8.990;2024-02-15T08:27:57;7.90;;;6.00;;
12110;SDS011;6119;52.372;8.990;2024-02-15T08:30:43;9.17;;;5.40;;
12110;SDS011;6119;52.372;8.990;2024-02-15T08:33:31;8.97;;;4.87;;
12110;SDS011;6119;52.372;8.990;2024-02-15T08:36:20;9.03;;;4.87;;
12110;SDS011;6119;52.372;8.990;2024-02-15T08:39:07;6.57;;;5.00;;
12110;SDS011;6119;52.372;8.990;2024-02-15T08:41:57;12.77;;;5.00;;
12110;SDS011;6119;52.372;8.990;2024-02-15T08:44:44;7.33;;;4.17;;
12110;SDS011;6119;52.372;8.990;2024-02-15T08:47:31;9.37;;;4.00;;
12110;SDS011;6119;52.372;8.990;2024-02-15T08:50:17;4.73;;;3.27;;
12110;SDS011;6119;52.372;8.990;2024-02-15T08:53:08;4.40;;;3.20;;
12110;SDS011;6119;52.372;8.990;2024-02-15T08:55:55;5.83;;;3.40;;
12110;SDS011;6119;52.372;8.990;2024-02-15T08:58:42;5.97;;;3.23;;
12110;SDS011;6119;52.372;8.990;2024-02-15T09:01:28;5.70;;;3.23;;
12110;SDS011;6119;52.372;8.990;2024-02-15T09:04:15;6.27;;;3.00;;
12110;SDS011;6119;52.372;8.990;2024-02-15T09:07:01;6.73;;;3.40;;
12110;SDS011;6119;52.372;8.990;2024-02-15T09:09:51;10.80;;;3.30;;
12110;SDS011;6119;52.372;8.990;2024-02-15T09:12:37;6.50;;;2.90;;
12110;SDS011;6119;52.372;8.990;2024-02-15T09:15:25;5.87;;;3.03;;
12110;SDS011;6119;52.372;8.990;2024-02-15T09:18:14;9.43;;;3.13;;
12110;SDS011;6119;52.372;8.990;2024-02-15T09:21:03;7.83;;;2.90;;
12110;SDS011;6119;52.372;8.990;2024-02-15T09:23:50;4.23;;;2.53;;
12110;SDS011;6119;52.372;8.990;2024-02-15T09:26:38;3.60;;;2.30;;
12110;SDS011;6119;52.372;8.990;2024-02-15T09:29:25;4.33;;;2.93;;
12110;SDS011;6119;52.372;8.990;2024-02-15T09:32:12;5.73;;;2.60;;
12110;SDS011;6119;52.372;8.990;2024-02-15T09:34:59;8.23;;;3.60;;
12110;SDS011;6119;52.372;8.990;2024-02-15T09:37:48;4.80;;;2.67;;
12110;SDS011;6119;52.372;8.990;2024-02-15T09:40:35;5.93;;;2.73;;
12110;SDS011;6119;52.372;8.990;2024-02-15T09:43:23;6.93;;;2.97;;
12110;SDS011;6119;52.372;8.990;2024-02-15T09:46:12;5.27;;;2.70;;
12110;SDS011;6119;52.372;8.990;2024-02-15T09:48:59;7.30;;;2.50;;
12110;SDS011;6119;52.372;8.990;2024-02-15T09:51:48;10.00;;;2.70;;
12110;SDS011;6119;52.372;8.990;2024-02-15T09:54:36;3.30;;;2.10;;
12110;SDS011;6119;52.372;8.990;2024-02-15T09:57:25;4.03;;;2.27;;
12110;SDS011;6119;52.372;8.990;2024-02-15T10:00:14;5.30;;;2.60;;
12110;SDS011;6119;52.372;8.990;2024-02-15T10:03:02;5.57;;;2.57;;
12110;SDS011;6119;52.372;8.990;2024-02-15T10:05:53;3.90;;;2.40;;
12110;SDS011;6119;52.372;8.990;2024-02-15T10:08:40;3.37;;;2.30;;
12110;SDS011;6119;52.372;8.990;2024-02-15T10:11:26;7.63;;;2.60;;
12110;SDS011;6119;52.372;8.990;2024-02-15T10:14:13;6.67;;;3.30;;
12110;SDS011;6119;52.372;8.990;2024-02-15T10:17:06;6.93;;;3.20;;
12110;SDS011;6119;52.372;8.990;2024-02-15T10:20:02;8.00;;;3.33;;
12110;SDS011;6119;52.372;8.990;2024-02-15T10:22:50;5.57;;;3.10;;
12110;SDS011;6119;52.372;8.990;2024-02-15T10:25:38;7.40;;;3.07;;
12110;SDS011;6119;52.372;8.990;2024-02-15T10:28:25;7.07;;;4.70;;
12110;SDS011;6119;52.372;8.990;2024-02-15T10:31:13;7.17;;;3.03;;
12110;SDS011;6119;52.372;8.990;2024-02-15T10:34:05;6.37;;;3.50;;
12110;SDS011;6119;52.372;8.990;2024-02-15T10:36:53;10.13;;;5.57;;
12110;SDS011;6119;52.372;8.990;2024-02-15T10:39:41;6.77;;;3.50;;
12110;SDS011;6119;52.372;8.990;2024-02-15T10:42:28;6.50;;;3.00;;
12110;SDS011;6119;52.372;8.990;2024-02-15T10:45:16;5.23;;;2.60;;
12110;SDS011;6119;52.372;8.990;2024-02-15T10:48:05;6.30;;;2.50;;
12110;SDS011;6119;52.372;8.990;2024-02-15T10:50:55;6.00;;;2.50;;
12110;SDS011;6119;52.372;8.990;2024-02-15T10:53:47;5.13;;;2.43;;
12110;SDS011;6119;52.372;8.990;2024-02-15T10:56:42;5.93;;;2.20;;
12110;SDS011;6119;52.372;8.990;2024-02-15T10:59:32;5.27;;;2.40;;
12110;SDS011;6119;52.372;8.990;2024-02-15T11:02:26;6.87;;;2.40;;
12110;SDS011;6119;52.372;8.990;2024-02-15T11:05:15;3.70;;;2.10;;
12110;SDS011;6119;52.372;8.990;2024-02-15T11:08:10;4.03;;;2.30;;
12110;SDS011;6119;52.372;8.990;2024-02-15T11:10:57;5.63;;;2.20;;
12110;SDS011;6119;52.372;8.990;2024-02-15T11:13:47;3.53;;;2.40;;
12110;SDS011;6119;52.372;8.990;2024-02-15T11:16:41;5.30;;;2.13;;
12110;SDS011;6119;52.372;8.990;2024-02-15T11:19:41;3.37;;;2.20;;
12110;SDS011;6119;52.372;8.990;2024-02-15T11:22:31;2.20;;;2.00;;
12110;SDS011;6119;52.372;8.990;2024-02-15T11:25:19;4.37;;;2.57;;
12110;SDS011;6119;52.372;8.990;2024-02-15T11:28:38;5.17;;;2.23;;
12110;SDS011;6119;52.372;8.990;2024-02-15T11:34:42;4.17;;;2.20;;
12110;SDS011;6119;52.372;8.990;2024-02-15T11:37:53;6.80;;;2.43;;
12110;SDS011;6119;52.372;8.990;2024-02-15T11:43:56;3.97;;;2.20;;
12110;SDS011;6119;52.372;8.990;2024-02-15T11:46:44;4.13;;;2.07;;
12110;SDS011;6119;52.372;8.990;2024-02-15T11:49:31;3.63;;;1.97;;
12110;SDS011;6119;52.372;8.990;2024-02-15T11:52:19;3.90;;;1.93;;
12110;SDS011;6119;52.372;8.990;2024-02-15T11:55:07;3.07;;;1.63;;
12110;SDS011;6119;52.372;8.990;2024-02-15T11:57:57;4.33;;;1.53;;
12110;SDS011;6119;52.372;8.990;2024-02-15T12:00:48;3.53;;;2.03;;
12110;SDS011;6119;52.372;8.990;2024-02-15T12:03:52;2.60;;;1.53;;
12110;SDS011;6119;52.372;8.990;2024-02-15T12:06:57;4.30;;;1.77;;
12110;SDS011;6119;52.372;8.990;2024-02-15T12:10:15;3.03;;;1.80;;
12110;SDS011;6119;52.372;8.990;2024-02-15T12:13:21;3.00;;;1.70;;
12110;SDS011;6119;52.372;8.990;2024-02-15T12:16:25;2.10;;;1.77;;
12110;SDS011;6119;52.372;8.990;2024-02-15T12:19:29;4.50;;;1.80;;
12110;SDS011;6119;52.372;8.990;2024-02-15T12:22:17;2.27;;;1.80;;
12110;SDS011;6119;52.372;8.990;2024-02-15T12:25:07;2.83;;;1.77;;
12110;SDS011;6119;52.372;8.990;2024-02-15T12:27:58;5.70;;;2.00;;
12110;SDS011;6119;52.372;8.990;2024-02-15T12:30:48;2.17;;;1.80;;
12110;SDS011;6119;52.372;8.990;2024-02-15T12:33:42;4.43;;;2.27;;
12110;SDS011;6119;52.372;8.990;2024-02-15T12:36:30;3.77;;;1.83;;
12110;SDS011;6119;52.372;8.990;2024-02-15T12:39:23;2.97;;;1.80;;
12110;SDS011;6119;52.372;8.990;2024-02-15T12:42:13;4.33;;;1.80;;
12110;SDS011;6119;52.372;8.990;2024-02-15T12:44:59;3.27;;;2.10;;
12110;SDS011;6119;52.372;8.990;2024-02-15T12:47:51;4.07;;;1.87;;
12110;SDS011;6119;52.372;8.990;2024-02-15T12:50:38;5.00;;;1.67;;
12110;SDS011;6119;52.372;8.990;2024-02-15T12:53:25;3.63;;;1.60;;
12110;SDS011;6119;52.372;8.990;2024-02-15T12:56:19;2.60;;;1.60;;
12110;SDS011;6119;52.372;8.990;2024-02-15T12:59:06;2.77;;;1.70;;
12110;SDS011;6119;52.372;8.990;2024-02-15T13:01:53;2.33;;;1.63;;
12110;SDS011;6119;52.372;8.990;2024-02-15T13:04:41;2.20;;;1.90;;
12110;SDS011;6119;52.372;8.990;2024-02-15T13:07:28;3.90;;;1.73;;
12110;SDS011;6119;52.372;8.990;2024-02-15T13:10:16;2.70;;;2.00;;
12110;SDS011;6119;52.372;8.990;2024-02-15T13:13:03;1.40;;;1.30;;
12110;SDS011;6119;52.372;8.990;2024-02-15T13:15:50;2.70;;;1.50;;
12110;SDS011;6119;52.372;8.990;2024-02-15T13:18:37;3.63;;;1.70;;
12110;SDS011;6119;52.372;8.990;2024-02-15T13:21:26;4.90;;;1.87;;
12110;SDS011;6119;52.372;8.990;2024-02-15T13:24:15;2.23;;;1.60;;
12110;SDS011;6119;52.372;8.990;2024-02-15T13:27:02;3.53;;;1.60;;
12110;SDS011;6119;52.372;8.990;2024-02-15T13:29:49;3.53;;;1.43;;
12110;SDS011;6119;52.372;8.990;2024-02-15T13:32:36;3.30;;;1.53;;
12110;SDS011;6119;52.372;8.990;2024-02-15T13:35:23;2.17;;;1.53;;
12110;SDS011;6119;52.372;8.990;2024-02-15T13:38:12;4.20;;;1.60;;
12110;SDS011;6119;52.372;8.990;2024-02-15T13:41:07;3.67;;;1.40;;
12110;SDS011;6119;52.372;8.990;2024-02-15T13:43:54;4.43;;;1.73;;
12110;SDS011;6119;52.372;8.990;2024-02-15T13:46:40;1.60;;;1.50;;
12110;SDS011;6119;52.372;8.990;2024-02-15T13:49:28;3.60;;;1.60;;
12110;SDS011;6119;52.372;8.990;2024-02-15T13:52:17;5.43;;;1.90;;
12110;SDS011;6119;52.372;8.990;2024-02-15T13:55:05;4.77;;;1.70;;
12110;SDS011;6119;52.372;8.990;2024-02-15T13:57:53;2.63;;;1.40;;
12110;SDS011;6119;52.372;8.990;2024-02-15T14:00:42;3.77;;;1.53;;
12110;SDS011;6119;52.372;8.990;2024-02-15T14:03:29;3.70;;;2.13;;
12110;SDS011;6119;52.372;8.990;2024-02-15T14:06:19;4.70;;;1.50;;
12110;SDS011;6119;52.372;8.990;2024-02-15T14:09:05;4.70;;;2.33;;
12110;SDS011;6119;52.372;8.990;2024-02-15T14:11:54;2.83;;;1.47;;
12110;SDS011;6119;52.372;8.990;2024-02-15T14:14:40;2.87;;;1.80;;
12110;SDS011;6119;52.372;8.990;2024-02-15T14:17:27;4.33;;;1.90;;
12110;SDS011;6119;52.372;8.990;2024-02-15T14:20:14;3.10;;;1.50;;
12110;SDS011;6119;52.372;8.990;2024-02-15T14:23:00;3.60;;;1.43;;
12110;SDS011;6119;52.372;8.990;2024-02-15T14:25:51;2.30;;;1.30;;
12110;SDS011;6119;52.372;8.990;2024-02-15T14:28:39;4.33;;;2.03;;
12110;SDS011;6119;52.372;8.990;2024-02-15T14:31:27;2.13;;;1.50;;
12110;SDS011;6119;52.372;8.990;2024-02-15T14:34:31;4.17;;;1.40;;
12110;SDS011;6119;52.372;8.990;2024-02-15T14:37:20;2.10;;;1.40;;
12110;SDS011;6119;52.372;8.990;2024-02-15T14:40:08;3.23;;;1.50;;
12110;SDS011;6119;52.372;8.990;2024-02-15T14:43:02;5.57;;;2.13;;
12110;SDS011;6119;52.372;8.990;2024-02-15T14:45:51;5.10;;;1.47;;
12110;SDS011;6119;52.372;8.990;2024-02-15T14:48:39;4.27;;;1.20;;
12110;SDS011;6119;52.372;8.990;2024-02-15T14:51:27;4.37;;;1.77;;
12110;SDS011;6119;52.372;8.990;2024-02-15T14:54:14;1.57;;;1.47;;
12110;SDS011;6119;52.372;8.990;2024-02-15T14:57:08;4.03;;;1.60;;
12110;SDS011;6119;52.372;8.990;2024-02-15T14:59:55;3.93;;;1.50;;
12110;SDS011;6119;52.372;8.990;2024-02-15T15:02:43;3.03;;;1.60;;
12110;SDS011;6119;52.372;8.990;2024-02-15T15:05:31;3.63;;;1.47;;
12110;SDS011;6119;52.372;8.990;2024-02-15T15:08:44;1.77;;;1.57;;
12110;SDS011;6119;52.372;8.990;2024-02-15T15:11:48;2.97;;;1.50;;
12110;SDS011;6119;52.372;8.990;2024-02-15T15:14:53;4.77;;;1.40;;
12110;SDS011;6119;52.372;8.990;2024-02-15T15:17:40;2.03;;;1.43;;
12110;SDS011;6119;52.372;8.990;2024-02-15T15:20:29;4.57;;;2.07;;
12110;SDS011;6119;52.372;8.990;2024-02-15T15:23:18;5.77;;;1.50;;
12110;SDS011;6119;52.372;8.990;2024-02-15T15:26:04;3.27;;;1.63;;
12110;SDS011;6119;52.372;8.990;2024-02-15T15:28:51;3.33;;;1.20;;
12110;SDS011;6119;52.372;8.990;2024-02-15T15:31:42;6.87;;;1.37;;
12110;SDS011;6119;52.372;8.990;2024-02-15T15:34:29;1.80;;;1.50;;
12110;SDS011;6119;52.372;8.990;2024-02-15T15:37:21;3.23;;;1.70;;
12110;SDS011;6119;52.372;8.990;2024-02-15T15:40:08;3.77;;;1.50;;
12110;SDS011;6119;52.372;8.990;2024-02-15T15:42:56;3.23;;;1.40;;
12110;SDS011;6119;52.372;8.990;2024-02-15T15:45:44;2.93;;;1.50;;
12110;SDS011;6119;52.372;8.990;2024-02-15T15:48:31;3.53;;;1.33;;
12110;SDS011;6119;52.372;8.990;2024-02-15T15:51:19;2.77;;;1.40;;
12110;SDS011;6119;52.372;8.990;2024-02-15T15:54:06;4.07;;;1.33;;
12110;SDS011;6119;52.372;8.990;2024-02-15T15:56:53;4.83;;;1.93;;
12110;SDS011;6119;52.372;8.990;2024-02-15T15:59:41;2.00;;;1.23;;
12110;SDS011;6119;52.372;8.990;2024-02-15T16:02:29;2.97;;;1.60;;
12110;SDS011;6119;52.372;8.990;2024-02-15T16:05:15;3.40;;;1.33;;
12110;SDS011;6119;52.372;8.990;2024-02-15T16:08:02;3.40;;;1.53;;
12110;SDS011;6119;52.372;8.990;2024-02-15T16:10:51;1.77;;;1.00;;
12110;SDS011;6119;52.372;8.990;2024-02-15T16:13:39;2.47;;;1.20;;
12110;SDS011;6119;52.372;8.990;2024-02-15T16:16:27;1.30;;;1.20;;
12110;SDS011;6119;52.372;8.990;2024-02-15T16:19:14;3.07;;;1.20;;
12110;SDS011;6119;52.372;8.990;2024-02-15T16:22:01;1.77;;;1.23;;
12110;SDS011;6119;52.372;8.990;2024-02-15T16:24:48;1.60;;;1.20;;
12110;SDS011;6119;52.372;8.990;2024-02-15T16:27:36;3.40;;;1.40;;
12110;SDS011;6119;52.372;8.990;2024-02-15T16:30:24;1.70;;;1.40;;
12110;SDS011;6119;52.372;8.990;2024-02-15T16:33:10;3.10;;;1.70;;
12110;SDS011;6119;52.372;8.990;2024-02-15T16:35:57;2.13;;;1.53;;
12110;SDS011;6119;52.372;8.990;2024-02-15T16:38:44;3.47;;;1.47;;
12110;SDS011;6119;52.372;8.990;2024-02-15T16:41:31;4.33;;;1.70;;
12110;SDS011;6119;52.372;8.990;2024-02-15T16:44:18;2.37;;;1.77;;
12110;SDS011;6119;52.372;8.990;2024-02-15T16:47:06;2.90;;;1.73;;
12110;SDS011;6119;52.372;8.990;2024-02-15T16:49:55;4.40;;;2.33;;
12110;SDS011;6119;52.372;8.990;2024-02-15T16:52:42;4.13;;;1.83;;
12110;SDS011;6119;52.372;8.990;2024-02-15T16:55:29;7.07;;;2.23;;
12110;SDS011;6119;52.372;8.990;2024-02-15T16:58:17;3.23;;;2.10;;
12110;SDS011;6119;52.372;8.990;2024-02-15T17:01:07;6.40;;;2.60;;
12110;SDS011;6119;52.372;8.990;2024-02-15T17:03:55;2.73;;;2.00;;